Somes Bar, California
Current Conditions -  °F | °C
As of 1:22 AM on Monday 20 Oct 2014 (Local Time) from KACV Reporting Station
Heavy Rain Heavy Rain  
Wind Chill: 59°   Ceiling: 200
Heat Index: 59°   Visibility: 1.5mi
Dew Point: 57°   Wind: 12mph
Humidity: 93%   Direction: 250°WSW
Pressure: 29.82"   Gusts: 18mph
Location:  41.38°N, 123.49°W
Report Text: KACV 200822Z AUTO 25010G16KT 1 1/2SM R32/4500VP6000FT +RA BR BKN002 OVC039 15/14 A2982 RMK AO2 P0014 T01500139
Loading
Personal Weather Stations






























Interactive Weather Map
Tropical Storm Tracking
New forecast layout! Learn more

10-Day Weather Forecast

Advertisements
Track Severe Weather on mobile